sensor_id;sensor_type;location;lat;lon;timestamp;P1;durP1;ratioP1;P2;durP2;ratioP2
38220;SDS011;24023;51.280;7.148;2023-03-08T00:00:12;7.2;;;6.4;;
38220;SDS011;24023;51.280;7.148;2023-03-08T00:05:06;7.2;;;6.4;;
38220;SDS011;24023;51.280;7.148;2023-03-08T00:10:09;6.8;;;6.1;;
38220;SDS011;24023;51.280;7.148;2023-03-08T00:15:07;6.8;;;6.1;;
38220;SDS011;24023;51.280;7.148;2023-03-08T00:20:09;7.2;;;6.2;;
38220;SDS011;24023;51.280;7.148;2023-03-08T00:25:08;7.2;;;6.2;;
38220;SDS011;24023;51.280;7.148;2023-03-08T00:30:10;6.9;;;6.1;;
38220;SDS011;24023;51.280;7.148;2023-03-08T00:35:06;6.9;;;6.1;;
38220;SDS011;24023;51.280;7.148;2023-03-08T00:40:08;6.9;;;6.1;;
38220;SDS011;24023;51.280;7.148;2023-03-08T00:45:09;6.6;;;6.0;;
38220;SDS011;24023;51.280;7.148;2023-03-08T00:50:08;6.6;;;6.0;;
38220;SDS011;24023;51.280;7.148;2023-03-08T00:55:07;7.2;;;6.1;;
38220;SDS011;24023;51.280;7.148;2023-03-08T01:00:12;7.2;;;6.1;;
38220;SDS011;24023;51.280;7.148;2023-03-08T01:05:10;7.2;;;6.1;;
38220;SDS011;24023;51.280;7.148;2023-03-08T01:10:08;7.4;;;6.6;;
38220;SDS011;24023;51.280;7.148;2023-03-08T01:15:08;7.4;;;6.6;;
38220;SDS011;24023;51.280;7.148;2023-03-08T01:20:08;8.8;;;6.8;;
38220;SDS011;24023;51.280;7.148;2023-03-08T01:25:06;8.8;;;6.8;;
38220;SDS011;24023;51.280;7.148;2023-03-08T01:30:09;8.8;;;6.8;;
38220;SDS011;24023;51.280;7.148;2023-03-08T01:35:06;7.9;;;7.1;;
38220;SDS011;24023;51.280;7.148;2023-03-08T01:40:08;7.9;;;7.1;;
38220;SDS011;24023;51.280;7.148;2023-03-08T01:46:01;8.3;;;7.4;;
38220;SDS011;24023;51.280;7.148;2023-03-08T01:50:10;8.3;;;7.4;;
38220;SDS011;24023;51.280;7.148;2023-03-08T01:55:07;7.9;;;6.6;;
38220;SDS011;24023;51.280;7.148;2023-03-08T02:00:13;7.9;;;6.6;;
38220;SDS011;24023;51.280;7.148;2023-03-08T02:05:06;7.9;;;6.6;;
38220;SDS011;24023;51.280;7.148;2023-03-08T02:10:08;8.1;;;7.3;;
38220;SDS011;24023;51.280;7.148;2023-03-08T02:15:08;8.1;;;7.3;;
38220;SDS011;24023;51.280;7.148;2023-03-08T02:20:10;7.8;;;6.7;;
38220;SDS011;24023;51.280;7.148;2023-03-08T02:25:08;7.8;;;6.7;;
38220;SDS011;24023;51.280;7.148;2023-03-08T02:30:11;7.8;;;6.7;;
38220;SDS011;24023;51.280;7.148;2023-03-08T02:35:08;7.3;;;6.3;;
38220;SDS011;24023;51.280;7.148;2023-03-08T02:40:08;7.3;;;6.3;;
38220;SDS011;24023;51.280;7.148;2023-03-08T02:45:09;6.8;;;6.1;;
38220;SDS011;24023;51.280;7.148;2023-03-08T02:50:08;6.8;;;6.1;;
38220;SDS011;24023;51.280;7.148;2023-03-08T02:55:07;6.8;;;6.1;;
38220;SDS011;24023;51.280;7.148;2023-03-08T03:00:11;6.7;;;6.0;;
38220;SDS011;24023;51.280;7.148;2023-03-08T03:05:07;6.7;;;6.0;;
38220;SDS011;24023;51.280;7.148;2023-03-08T03:10:10;7.5;;;6.6;;
38220;SDS011;24023;51.280;7.148;2023-03-08T03:15:08;7.5;;;6.6;;
38220;SDS011;24023;51.280;7.148;2023-03-08T03:20:08;8.6;;;6.8;;
38220;SDS011;24023;51.280;7.148;2023-03-08T03:25:07;8.6;;;6.8;;
38220;SDS011;24023;51.280;7.148;2023-03-08T03:30:09;8.6;;;6.8;;
38220;SDS011;24023;51.280;7.148;2023-03-08T03:35:06;8.8;;;7.5;;
38220;SDS011;24023;51.280;7.148;2023-03-08T03:40:09;8.8;;;7.5;;
38220;SDS011;24023;51.280;7.148;2023-03-08T03:45:10;10.6;;;8.9;;
38220;SDS011;24023;51.280;7.148;2023-03-08T03:50:08;10.6;;;8.9;;
38220;SDS011;24023;51.280;7.148;2023-03-08T03:55:07;10.6;;;8.9;;
38220;SDS011;24023;51.280;7.148;2023-03-08T04:00:11;9.3;;;8.3;;
38220;SDS011;24023;51.280;7.148;2023-03-08T04:05:07;11.0;;;9.6;;
38220;SDS011;24023;51.280;7.148;2023-03-08T04:10:08;11.0;;;9.6;;
38220;SDS011;24023;51.280;7.148;2023-03-08T04:15:09;12.1;;;10.2;;
38220;SDS011;24023;51.280;7.148;2023-03-08T04:20:07;12.1;;;10.2;;
38220;SDS011;24023;51.280;7.148;2023-03-08T04:25:06;8.2;;;7.4;;
38220;SDS011;24023;51.280;7.148;2023-03-08T04:30:09;8.2;;;7.4;;
38220;SDS011;24023;51.280;7.148;2023-03-08T04:35:06;7.5;;;6.8;;
38220;SDS011;24023;51.280;7.148;2023-03-08T04:40:09;7.5;;;6.8;;
38220;SDS011;24023;51.280;7.148;2023-03-08T04:45:09;7.5;;;6.8;;
38220;SDS011;24023;51.280;7.148;2023-03-08T04:50:08;7.5;;;6.8;;
38220;SDS011;24023;51.280;7.148;2023-03-08T04:55:07;7.8;;;7.0;;
38220;SDS011;24023;51.280;7.148;2023-03-08T05:00:12;7.8;;;7.0;;
38220;SDS011;24023;51.280;7.148;2023-03-08T05:05:06;8.8;;;7.9;;
38220;SDS011;24023;51.280;7.148;2023-03-08T05:10:08;8.8;;;7.9;;
38220;SDS011;24023;51.280;7.148;2023-03-08T05:15:08;8.5;;;7.6;;
38220;SDS011;24023;51.280;7.148;2023-03-08T05:20:08;8.5;;;7.6;;
38220;SDS011;24023;51.280;7.148;2023-03-08T05:25:08;10.1;;;8.4;;
38220;SDS011;24023;51.280;7.148;2023-03-08T05:30:10;10.1;;;8.4;;
38220;SDS011;24023;51.280;7.148;2023-03-08T05:35:06;11.4;;;10.2;;
38220;SDS011;24023;51.280;7.148;2023-03-08T05:40:08;11.4;;;10.2;;
38220;SDS011;24023;51.280;7.148;2023-03-08T05:45:11;10.6;;;9.5;;
38220;SDS011;24023;51.280;7.148;2023-03-08T05:50:08;10.6;;;9.5;;
38220;SDS011;24023;51.280;7.148;2023-03-08T05:55:06;8.3;;;7.5;;
38220;SDS011;24023;51.280;7.148;2023-03-08T06:00:11;8.3;;;7.5;;
38220;SDS011;24023;51.280;7.148;2023-03-08T06:05:06;9.3;;;8.4;;
38220;SDS011;24023;51.280;7.148;2023-03-08T06:10:08;9.3;;;8.4;;
38220;SDS011;24023;51.280;7.148;2023-03-08T06:15:08;10.9;;;9.7;;
38220;SDS011;24023;51.280;7.148;2023-03-08T06:20:08;10.9;;;9.7;;
38220;SDS011;24023;51.280;7.148;2023-03-08T06:25:07;7.8;;;7.0;;
38220;SDS011;24023;51.280;7.148;2023-03-08T06:30:09;7.8;;;7.0;;
38220;SDS011;24023;51.280;7.148;2023-03-08T06:35:06;5.1;;;4.5;;
38220;SDS011;24023;51.280;7.148;2023-03-08T06:40:09;5.1;;;4.5;;
38220;SDS011;24023;51.280;7.148;2023-03-08T06:45:09;5.4;;;4.9;;
38220;SDS011;24023;51.280;7.148;2023-03-08T06:50:09;5.4;;;4.9;;
38220;SDS011;24023;51.280;7.148;2023-03-08T06:55:06;5.4;;;4.9;;
38220;SDS011;24023;51.280;7.148;2023-03-08T07:00:12;6.2;;;5.5;;
38220;SDS011;24023;51.280;7.148;2023-03-08T07:05:07;6.2;;;5.5;;
38220;SDS011;24023;51.280;7.148;2023-03-08T07:10:10;6.4;;;5.7;;
38220;SDS011;24023;51.280;7.148;2023-03-08T07:15:08;6.0;;;5.4;;
38220;SDS011;24023;51.280;7.148;2023-03-08T07:20:09;6.0;;;5.4;;
38220;SDS011;24023;51.280;7.148;2023-03-08T07:25:06;4.5;;;3.0;;
38220;SDS011;24023;51.280;7.148;2023-03-08T07:30:10;4.5;;;3.0;;
38220;SDS011;24023;51.280;7.148;2023-03-08T07:35:06;3.8;;;2.8;;
38220;SDS011;24023;51.280;7.148;2023-03-08T07:40:08;3.8;;;2.8;;
38220;SDS011;24023;51.280;7.148;2023-03-08T07:45:12;3.8;;;2.8;;
38220;SDS011;24023;51.280;7.148;2023-03-08T07:50:08;3.3;;;2.9;;
38220;SDS011;24023;51.280;7.148;2023-03-08T07:55:06;3.3;;;2.9;;
38220;SDS011;24023;51.280;7.148;2023-03-08T08:00:11;3.5;;;3.0;;
38220;SDS011;24023;51.280;7.148;2023-03-08T08:05:06;1.8;;;1.5;;
38220;SDS011;24023;51.280;7.148;2023-03-08T08:10:08;1.8;;;1.5;;
38220;SDS011;24023;51.280;7.148;2023-03-08T08:15:07;1.9;;;1.4;;
38220;SDS011;24023;51.280;7.148;2023-03-08T08:20:08;1.9;;;1.4;;
38220;SDS011;24023;51.280;7.148;2023-03-08T08:25:07;1.9;;;1.4;;
38220;SDS011;24023;51.280;7.148;2023-03-08T08:30:10;2.2;;;1.6;;
38220;SDS011;24023;51.280;7.148;2023-03-08T08:35:07;2.2;;;1.6;;
38220;SDS011;24023;51.280;7.148;2023-03-08T08:40:08;1.9;;;1.6;;
38220;SDS011;24023;51.280;7.148;2023-03-08T08:45:09;1.9;;;1.6;;
38220;SDS011;24023;51.280;7.148;2023-03-08T08:50:08;2.0;;;1.6;;
38220;SDS011;24023;51.280;7.148;2023-03-08T08:55:07;2.0;;;1.6;;
38220;SDS011;24023;51.280;7.148;2023-03-08T09:00:11;2.0;;;1.6;;
38220;SDS011;24023;51.280;7.148;2023-03-08T09:05:07;1.7;;;1.6;;
38220;SDS011;24023;51.280;7.148;2023-03-08T09:10:08;1.7;;;1.6;;
38220;SDS011;24023;51.280;7.148;2023-03-08T09:15:09;1.7;;;1.5;;
38220;SDS011;24023;51.280;7.148;2023-03-08T09:20:09;1.7;;;1.5;;
38220;SDS011;24023;51.280;7.148;2023-03-08T09:25:07;1.7;;;1.5;;
38220;SDS011;24023;51.280;7.148;2023-03-08T09:30:10;2.0;;;1.6;;
38220;SDS011;24023;51.280;7.148;2023-03-08T09:35:07;2.0;;;1.6;;
38220;SDS011;24023;51.280;7.148;2023-03-08T09:40:12;1.6;;;1.5;;
38220;SDS011;24023;51.280;7.148;2023-03-08T09:45:15;1.6;;;1.5;;
38220;SDS011;24023;51.280;7.148;2023-03-08T09:50:14;1.6;;;1.5;;
38220;SDS011;24023;51.280;7.148;2023-03-08T09:55:16;1.4;;;1.3;;
38220;SDS011;24023;51.280;7.148;2023-03-08T10:00:16;1.6;;;1.4;;
38220;SDS011;24023;51.280;7.148;2023-03-08T10:05:06;1.6;;;1.4;;
38220;SDS011;24023;51.280;7.148;2023-03-08T10:10:13;1.7;;;1.6;;
38220;SDS011;24023;51.280;7.148;2023-03-08T10:15:08;1.7;;;1.6;;
38220;SDS011;24023;51.280;7.148;2023-03-08T10:20:11;2.4;;;1.7;;
38220;SDS011;24023;51.280;7.148;2023-03-08T10:25:14;2.4;;;1.7;;
38220;SDS011;24023;51.280;7.148;2023-03-08T10:30:12;2.4;;;1.7;;
38220;SDS011;24023;51.280;7.148;2023-03-08T10:35:06;2.6;;;2.0;;
38220;SDS011;24023;51.280;7.148;2023-03-08T10:40:09;2.6;;;2.0;;
38220;SDS011;24023;51.280;7.148;2023-03-08T10:45:12;2.4;;;2.0;;
38220;SDS011;24023;51.280;7.148;2023-03-08T10:50:11;2.4;;;2.0;;
38220;SDS011;24023;51.280;7.148;2023-03-08T10:55:09;2.4;;;2.0;;
38220;SDS011;24023;51.280;7.148;2023-03-08T11:00:21;2.2;;;1.9;;
38220;SDS011;24023;51.280;7.148;2023-03-08T11:05:22;2.2;;;1.9;;
38220;SDS011;24023;51.280;7.148;2023-03-08T11:10:14;2.3;;;2.0;;
38220;SDS011;24023;51.280;7.148;2023-03-08T11:15:11;2.3;;;2.0;;
38220;SDS011;24023;51.280;7.148;2023-03-08T11:20:12;2.3;;;2.0;;
38220;SDS011;24023;51.280;7.148;2023-03-08T11:25:11;2.7;;;2.5;;
38220;SDS011;24023;51.280;7.148;2023-03-08T11:30:13;2.7;;;2.5;;
38220;SDS011;24023;51.280;7.148;2023-03-08T11:35:08;3.2;;;2.9;;
38220;SDS011;24023;51.280;7.148;2023-03-08T11:40:13;3.2;;;2.9;;
38220;SDS011;24023;51.280;7.148;2023-03-08T11:45:16;3.1;;;2.8;;
38220;SDS011;24023;51.280;7.148;2023-03-08T11:50:08;3.1;;;2.8;;
38220;SDS011;24023;51.280;7.148;2023-03-08T12:00:21;3.3;;;2.8;;
38220;SDS011;24023;51.280;7.148;2023-03-08T12:05:08;3.3;;;3.0;;
38220;SDS011;24023;51.280;7.148;2023-03-08T12:10:12;3.3;;;3.0;;
38220;SDS011;24023;51.280;7.148;2023-03-08T12:15:12;3.6;;;3.3;;
38220;SDS011;24023;51.280;7.148;2023-03-08T12:20:11;3.6;;;3.3;;
38220;SDS011;24023;51.280;7.148;2023-03-08T12:25:08;3.6;;;3.3;;
38220;SDS011;24023;51.280;7.148;2023-03-08T12:30:14;3.7;;;3.4;;
38220;SDS011;24023;51.280;7.148;2023-03-08T12:35:19;3.7;;;3.4;;
38220;SDS011;24023;51.280;7.148;2023-03-08T12:40:26;3.3;;;3.0;;
38220;SDS011;24023;51.280;7.148;2023-03-08T12:45:25;3.5;;;3.0;;
38220;SDS011;24023;51.280;7.148;2023-03-08T12:50:09;3.5;;;3.0;;
38220;SDS011;24023;51.280;7.148;2023-03-08T12:55:15;3.5;;;3.0;;
38220;SDS011;24023;51.280;7.148;2023-03-08T13:00:23;3.0;;;2.8;;
38220;SDS011;24023;51.280;7.148;2023-03-08T13:05:16;3.0;;;2.8;;
38220;SDS011;24023;51.280;7.148;2023-03-08T13:10:17;3.3;;;2.9;;
38220;SDS011;24023;51.280;7.148;2023-03-08T13:15:17;3.3;;;2.9;;
38220;SDS011;24023;51.280;7.148;2023-03-08T13:20:11;3.3;;;2.9;;
38220;SDS011;24023;51.280;7.148;2023-03-08T13:25:08;3.4;;;3.1;;
38220;SDS011;24023;51.280;7.148;2023-03-08T13:30:15;3.4;;;3.1;;
38220;SDS011;24023;51.280;7.148;2023-03-08T13:35:10;4.2;;;3.4;;
38220;SDS011;24023;51.280;7.148;2023-03-08T13:40:14;4.2;;;3.4;;
38220;SDS011;24023;51.280;7.148;2023-03-08T13:45:15;4.2;;;3.5;;
38220;SDS011;24023;51.280;7.148;2023-03-08T13:50:13;4.2;;;3.5;;
38220;SDS011;24023;51.280;7.148;2023-03-08T13:55:07;4.2;;;3.5;;
38220;SDS011;24023;51.280;7.148;2023-03-08T14:00:27;4.1;;;3.7;;
38220;SDS011;24023;51.280;7.148;2023-03-08T14:05:14;4.1;;;3.7;;
38220;SDS011;24023;51.280;7.148;2023-03-08T14:10:11;4.2;;;3.7;;
38220;SDS011;24023;51.280;7.148;2023-03-08T14:15:15;4.2;;;3.7;;
38220;SDS011;24023;51.280;7.148;2023-03-08T14:20:16;4.2;;;3.7;;
38220;SDS011;24023;51.280;7.148;2023-03-08T14:25:15;4.5;;;3.7;;
38220;SDS011;24023;51.280;7.148;2023-03-08T14:30:11;4.5;;;3.7;;
38220;SDS011;24023;51.280;7.148;2023-03-08T14:35:14;4.4;;;4.0;;
38220;SDS011;24023;51.280;7.148;2023-03-08T14:40:25;4.4;;;4.0;;
38220;SDS011;24023;51.280;7.148;2023-03-08T14:45:17;4.4;;;4.0;;
38220;SDS011;24023;51.280;7.148;2023-03-08T14:50:17;4.4;;;3.9;;
38220;SDS011;24023;51.280;7.148;2023-03-08T14:55:18;4.9;;;4.5;;
38220;SDS011;24023;51.280;7.148;2023-03-08T15:00:14;4.9;;;4.5;;
38220;SDS011;24023;51.280;7.148;2023-03-08T15:05:11;5.2;;;4.8;;
38220;SDS011;24023;51.280;7.148;2023-03-08T15:10:09;5.2;;;4.8;;
38220;SDS011;24023;51.280;7.148;2023-03-08T15:15:09;5.2;;;4.8;;
38220;SDS011;24023;51.280;7.148;2023-03-08T15:20:08;5.7;;;5.0;;
38220;SDS011;24023;51.280;7.148;2023-03-08T15:25:11;5.7;;;5.0;;
38220;SDS011;24023;51.280;7.148;2023-03-08T15:30:18;6.0;;;5.4;;
38220;SDS011;24023;51.280;7.148;2023-03-08T15:35:10;6.0;;;5.4;;
38220;SDS011;24023;51.280;7.148;2023-03-08T15:40:10;6.0;;;5.4;;
38220;SDS011;24023;51.280;7.148;2023-03-08T15:45:11;5.8;;;5.2;;
38220;SDS011;24023;51.280;7.148;2023-03-08T15:50:12;5.8;;;5.2;;
38220;SDS011;24023;51.280;7.148;2023-03-08T15:55:06;6.1;;;5.6;;
38220;SDS011;24023;51.280;7.148;2023-03-08T16:00:12;6.1;;;5.6;;
38220;SDS011;24023;51.280;7.148;2023-03-08T16:05:07;5.3;;;4.8;;
38220;SDS011;24023;51.280;7.148;2023-03-08T16:10:09;5.3;;;4.8;;
38220;SDS011;24023;51.280;7.148;2023-03-08T16:15:08;5.1;;;4.7;;
38220;SDS011;24023;51.280;7.148;2023-03-08T16:20:09;5.1;;;4.7;;
38220;SDS011;24023;51.280;7.148;2023-03-08T16:25:06;5.1;;;4.7;;
38220;SDS011;24023;51.280;7.148;2023-03-08T16:30:10;5.5;;;5.1;;
38220;SDS011;24023;51.280;7.148;2023-03-08T16:35:06;7.6;;;6.9;;
38220;SDS011;24023;51.280;7.148;2023-03-08T16:40:08;7.6;;;6.9;;
38220;SDS011;24023;51.280;7.148;2023-03-08T16:45:09;6.1;;;5.6;;
38220;SDS011;24023;51.280;7.148;2023-03-08T16:50:08;6.1;;;5.6;;
38220;SDS011;24023;51.280;7.148;2023-03-08T16:55:07;5.9;;;5.4;;
38220;SDS011;24023;51.280;7.148;2023-03-08T17:00:13;5.9;;;5.4;;
38220;SDS011;24023;51.280;7.148;2023-03-08T17:05:06;5.9;;;5.4;;
38220;SDS011;24023;51.280;7.148;2023-03-08T17:10:08;5.9;;;5.4;;
38220;SDS011;24023;51.280;7.148;2023-03-08T17:15:09;5.6;;;5.1;;
38220;SDS011;24023;51.280;7.148;2023-03-08T17:20:08;5.6;;;5.1;;
38220;SDS011;24023;51.280;7.148;2023-03-08T17:25:07;6.1;;;5.6;;
38220;SDS011;24023;51.280;7.148;2023-03-08T17:30:13;6.1;;;5.6;;
38220;SDS011;24023;51.280;7.148;2023-03-08T17:35:07;18.7;;;16.9;;
38220;SDS011;24023;51.280;7.148;2023-03-08T17:40:09;18.7;;;16.9;;
38220;SDS011;24023;51.280;7.148;2023-03-08T17:45:11;8.1;;;7.5;;
38220;SDS011;24023;51.280;7.148;2023-03-08T17:50:09;8.1;;;7.5;;
38220;SDS011;24023;51.280;7.148;2023-03-08T17:55:06;7.6;;;7.0;;
38220;SDS011;24023;51.280;7.148;2023-03-08T18:00:11;7.6;;;7.0;;
38220;SDS011;24023;51.280;7.148;2023-03-08T18:05:06;7.6;;;7.0;;
38220;SDS011;24023;51.280;7.148;2023-03-08T18:10:10;8.0;;;7.4;;
38220;SDS011;24023;51.280;7.148;2023-03-08T18:15:07;8.0;;;7.4;;
38220;SDS011;24023;51.280;7.148;2023-03-08T18:20:09;8.7;;;8.0;;
38220;SDS011;24023;51.280;7.148;2023-03-08T18:25:06;8.7;;;8.0;;
38220;SDS011;24023;51.280;7.148;2023-03-08T18:30:11;10.0;;;9.1;;
38220;SDS011;24023;51.280;7.148;2023-03-08T18:35:06;10.0;;;9.1;;
38220;SDS011;24023;51.280;7.148;2023-03-08T18:40:11;10.0;;;9.1;;
38220;SDS011;24023;51.280;7.148;2023-03-08T18:45:09;11.5;;;10.5;;
38220;SDS011;24023;51.280;7.148;2023-03-08T18:50:09;11.5;;;10.5;;
38220;SDS011;24023;51.280;7.148;2023-03-08T18:55:06;12.2;;;11.1;;
38220;SDS011;24023;51.280;7.148;2023-03-08T19:00:11;12.2;;;11.1;;
38220;SDS011;24023;51.280;7.148;2023-03-08T19:05:07;12.2;;;11.1;;
38220;SDS011;24023;51.280;7.148;2023-03-08T19:10:08;12.7;;;11.6;;
38220;SDS011;24023;51.280;7.148;2023-03-08T19:15:08;12.7;;;11.6;;
38220;SDS011;24023;51.280;7.148;2023-03-08T19:20:09;12.2;;;11.2;;
38220;SDS011;24023;51.280;7.148;2023-03-08T19:25:06;12.2;;;11.2;;
38220;SDS011;24023;51.280;7.148;2023-03-08T19:30:11;12.2;;;11.2;;
38220;SDS011;24023;51.280;7.148;2023-03-08T19:35:06;13.6;;;12.4;;
38220;SDS011;24023;51.280;7.148;2023-03-08T19:40:09;13.6;;;12.4;;
38220;SDS011;24023;51.280;7.148;2023-03-08T19:45:11;12.1;;;11.0;;
38220;SDS011;24023;51.280;7.148;2023-03-08T19:50:08;12.1;;;11.0;;
38220;SDS011;24023;51.280;7.148;2023-03-08T19:55:06;12.1;;;11.0;;
38220;SDS011;24023;51.280;7.148;2023-03-08T20:00:13;12.0;;;11.0;;
38220;SDS011;24023;51.280;7.148;2023-03-08T20:05:07;12.0;;;11.0;;
38220;SDS011;24023;51.280;7.148;2023-03-08T20:10:12;13.3;;;12.1;;
38220;SDS011;24023;51.280;7.148;2023-03-08T20:15:07;13.3;;;12.1;;
38220;SDS011;24023;51.280;7.148;2023-03-08T20:20:09;13.7;;;12.4;;
38220;SDS011;24023;51.280;7.148;2023-03-08T20:25:06;13.7;;;12.4;;
38220;SDS011;24023;51.280;7.148;2023-03-08T20:30:10;13.7;;;12.4;;
38220;SDS011;24023;51.280;7.148;2023-03-08T20:35:09;14.1;;;12.8;;
38220;SDS011;24023;51.280;7.148;2023-03-08T20:40:09;14.1;;;12.8;;
38220;SDS011;24023;51.280;7.148;2023-03-08T20:45:10;14.5;;;13.2;;
38220;SDS011;24023;51.280;7.148;2023-03-08T20:50:08;14.5;;;13.2;;
38220;SDS011;24023;51.280;7.148;2023-03-08T20:55:07;14.5;;;13.2;;
38220;SDS011;24023;51.280;7.148;2023-03-08T21:00:11;14.7;;;13.3;;
38220;SDS011;24023;51.280;7.148;2023-03-08T21:05:07;14.7;;;13.3;;
38220;SDS011;24023;51.280;7.148;2023-03-08T21:10:08;15.1;;;13.6;;
38220;SDS011;24023;51.280;7.148;2023-03-08T21:15:08;15.1;;;13.6;;
38220;SDS011;24023;51.280;7.148;2023-03-08T21:20:08;15.1;;;13.6;;
38220;SDS011;24023;51.280;7.148;2023-03-08T21:25:06;16.4;;;14.4;;
38220;SDS011;24023;51.280;7.148;2023-03-08T21:30:09;16.4;;;14.4;;
38220;SDS011;24023;51.280;7.148;2023-03-08T21:35:06;17.1;;;15.4;;
38220;SDS011;24023;51.280;7.148;2023-03-08T21:40:09;17.1;;;15.4;;
38220;SDS011;24023;51.280;7.148;2023-03-08T21:45:11;17.8;;;15.9;;
38220;SDS011;24023;51.280;7.148;2023-03-08T21:50:08;17.8;;;15.9;;
38220;SDS011;24023;51.280;7.148;2023-03-08T21:55:06;18.4;;;16.4;;
38220;SDS011;24023;51.280;7.148;2023-03-08T22:00:12;18.4;;;16.4;;
38220;SDS011;24023;51.280;7.148;2023-03-08T22:05:06;17.2;;;15.3;;
38220;SDS011;24023;51.280;7.148;2023-03-08T22:10:10;17.2;;;15.3;;
38220;SDS011;24023;51.280;7.148;2023-03-08T22:15:08;16.0;;;14.3;;
38220;SDS011;24023;51.280;7.148;2023-03-08T22:20:10;16.0;;;14.3;;
38220;SDS011;24023;51.280;7.148;2023-03-08T22:25:07;17.8;;;15.3;;
38220;SDS011;24023;51.280;7.148;2023-03-08T22:30:11;17.8;;;15.3;;
38220;SDS011;24023;51.280;7.148;2023-03-08T22:35:07;17.8;;;15.3;;
38220;SDS011;24023;51.280;7.148;2023-03-08T22:40:10;17.8;;;15.3;;
38220;SDS011;24023;51.280;7.148;2023-03-08T22:45:09;14.8;;;13.2;;
38220;SDS011;24023;51.280;7.148;2023-03-08T22:50:09;14.8;;;13.2;;
38220;SDS011;24023;51.280;7.148;2023-03-08T22:55:06;15.2;;;13.4;;
38220;SDS011;24023;51.280;7.148;2023-03-08T23:00:20;15.2;;;13.4;;
38220;SDS011;24023;51.280;7.148;2023-03-08T23:05:09;15.8;;;14.1;;
38220;SDS011;24023;51.280;7.148;2023-03-08T23:10:08;15.8;;;14.1;;
38220;SDS011;24023;51.280;7.148;2023-03-08T23:15:08;15.8;;;14.1;;
38220;SDS011;24023;51.280;7.148;2023-03-08T23:20:09;16.4;;;13.9;;
38220;SDS011;24023;51.280;7.148;2023-03-08T23:25:06;16.4;;;13.9;;
38220;SDS011;24023;51.280;7.148;2023-03-08T23:30:10;16.1;;;13.8;;
38220;SDS011;24023;51.280;7.148;2023-03-08T23:35:07;13.6;;;11.9;;
38220;SDS011;24023;51.280;7.148;2023-03-08T23:40:10;13.6;;;11.9;;
38220;SDS011;24023;51.280;7.148;2023-03-08T23:45:11;12.4;;;11.1;;
38220;SDS011;24023;51.280;7.148;2023-03-08T23:50:08;12.4;;;11.1;;
38220;SDS011;24023;51.280;7.148;2023-03-08T23:55:06;9.3;;;8.4;;
